Ana Sayfa
METAR-TAF:

METAR-TAF

Havaalanları :

Hillsboro, Teksas, Amerika Birleşik Devletleri

Enlem: 32-05N, Boylam: 097-05-50W, yükseklik: 209 m

Güncel hava durumu gözlemi

Rapor saat 18:55 UTC de 22 dakika önce yapıldı.
Rüzgar batıdan 17 kt
Sıcaklık 19°C
Nem 43%
Basınç 1009 hPa
Görüş mesafesi: 16.1 km
Açık gökyüzü

METAR: KINJ 241855Z AUTO 28017KT 10SM CLR 19/06 A2979 RMK AO2 T01920062

Saat: 13:17 (19:17 UTC)


TAF: eksik

4.000'den fazla havaalanı için hava durumu gözlemleri ve tahminleri (METAR ve TAF raporları).

Kullanılabilir istasyonlar harita üzerinde sarı ve kırmızı noktalarla gösterilir.

İstasyonun adını görmek için fareyi noktanın üzerinde gezdirin.

Sonrasında hava gözlem ve tahminlerini görmek için tıklayın.

Haritayı değiştirmek için: yaklaştırmak için siyah artı işaretli yeşil düğmeye ve uzaklaştırmak için de eksi işaretli düğmeye hızla tıklayın; bitişik haritalar için yeşil okları kullanın.


METAR-TAF: